createdAt,value
2018-11-21T00:00:52.275Z,2.31
2018-11-21T00:01:55.537Z,2.30
2018-11-21T00:02:58.454Z,2.32
2018-11-21T00:04:00.940Z,2.37
2018-11-21T00:05:03.559Z,2.38
2018-11-21T00:06:06.055Z,2.34
2018-11-21T00:07:08.842Z,2.36
2018-11-21T00:08:11.612Z,2.39
2018-11-21T00:09:14.237Z,2.44
2018-11-21T00:10:16.726Z,2.45
2018-11-21T00:11:19.246Z,2.43
2018-11-21T00:12:21.793Z,2.47
2018-11-21T00:13:25.863Z,2.50
2018-11-21T00:14:28.366Z,2.51
2018-11-21T00:15:31.148Z,2.48
2018-11-21T00:16:33.889Z,2.53
2018-11-21T00:17:37.445Z,2.56
2018-11-21T00:18:40.353Z,2.56
2018-11-21T00:19:43.366Z,2.52
2018-11-21T00:20:46.893Z,2.55
2018-11-21T00:21:49.520Z,2.55
2018-11-21T00:22:52.095Z,2.58
2018-11-21T00:23:54.573Z,2.55
2018-11-21T00:24:57.124Z,2.51
2018-11-21T00:26:00.426Z,2.49
2018-11-21T00:27:03.223Z,2.50
2018-11-21T00:28:05.707Z,2.53
2018-11-21T00:29:08.249Z,2.55
2018-11-21T00:30:11.969Z,2.52
2018-11-21T00:31:14.446Z,2.54
2018-11-21T00:32:24.969Z,2.54
2018-11-21T00:33:27.454Z,2.50
2018-11-21T00:34:29.976Z,2.48
2018-11-21T00:35:32.853Z,2.51
2018-11-21T00:36:35.426Z,2.52
2018-11-21T00:37:40.116Z,2.54
2018-11-21T00:38:50.425Z,2.53
2018-11-21T00:39:53.685Z,2.48
2018-11-21T00:40:56.189Z,2.47
2018-11-21T00:41:58.778Z,2.46
2018-11-21T00:43:01.568Z,2.47
2018-11-21T00:44:04.357Z,2.50
2018-11-21T00:45:08.577Z,2.51
2018-11-21T00:46:11.069Z,2.51
2018-11-21T00:47:13.584Z,2.52
2018-11-21T00:48:16.189Z,2.52
2018-11-21T00:49:18.679Z,2.51
2018-11-21T00:50:21.166Z,2.50
2018-11-21T00:51:24.104Z,2.57
2018-11-21T00:52:26.601Z,2.57
2018-11-21T00:53:30.174Z,2.56
2018-11-21T00:54:33.695Z,2.55
2018-11-21T00:55:36.232Z,2.54
2018-11-21T00:56:38.724Z,2.54
2018-11-21T00:57:46.915Z,2.54
2018-11-21T00:58:50.601Z,2.55
2018-11-21T00:59:53.074Z,2.58
2018-11-21T01:00:55.570Z,2.57
2018-11-21T01:01:58.088Z,2.59
2018-11-21T01:03:00.667Z,2.58
2018-11-21T01:04:03.555Z,2.60
2018-11-21T01:05:06.119Z,2.61
2018-11-21T01:06:09.008Z,2.60
2018-11-21T01:07:11.484Z,2.57
2018-11-21T01:08:13.997Z,2.57
2018-11-21T01:09:16.714Z,2.59
2018-11-21T01:10:19.499Z,2.60
2018-11-21T01:11:22.005Z,2.59
2018-11-21T01:12:24.494Z,2.61
2018-11-21T01:13:27.938Z,2.61
2018-11-21T01:14:30.509Z,2.62
2018-11-21T01:15:32.999Z,2.62
2018-11-21T01:16:35.807Z,2.62
2018-11-21T01:17:38.389Z,2.60
2018-11-21T01:18:40.902Z,2.59
2018-11-21T01:19:43.392Z,2.58
2018-11-21T01:20:45.911Z,2.59
2018-11-21T01:21:48.423Z,2.55
2018-11-21T01:22:52.293Z,2.54
2018-11-21T01:23:54.797Z,2.54
2018-11-21T01:24:57.279Z,2.54
2018-11-21T01:25:59.771Z,2.52
2018-11-21T01:27:02.293Z,2.51
2018-11-21T01:28:04.841Z,2.51
2018-11-21T01:29:08.105Z,2.52
2018-11-21T01:30:10.616Z,2.52
2018-11-21T01:31:15.795Z,2.54
2018-11-21T01:32:18.305Z,2.55
2018-11-21T01:33:20.983Z,2.54
2018-11-21T01:34:23.588Z,2.50
2018-11-21T01:35:26.566Z,2.50
2018-11-21T01:36:29.089Z,2.48
2018-11-21T01:37:31.668Z,2.47
2018-11-21T01:38:34.598Z,2.47
2018-11-21T01:39:37.524Z,2.48
2018-11-21T01:40:40.049Z,2.46
2018-11-21T01:41:44.547Z,2.47
2018-11-21T01:42:48.008Z,2.48
2018-11-21T01:43:50.573Z,2.45
2018-11-21T01:44:53.097Z,2.42
2018-11-21T01:45:55.765Z,2.43
2018-11-21T01:46:58.305Z,2.44
2018-11-21T01:48:01.489Z,2.46
2018-11-21T01:49:04.013Z,2.43
2018-11-21T01:50:06.783Z,2.41
2018-11-21T01:51:09.694Z,2.44
2018-11-21T01:52:12.794Z,2.41
2018-11-21T01:53:15.524Z,2.39
2018-11-21T01:54:18.629Z,2.43
2018-11-21T01:55:21.537Z,2.39
2018-11-21T01:56:27.686Z,2.38
2018-11-21T01:57:30.159Z,2.33
2018-11-21T01:58:33.023Z,2.33
2018-11-21T01:59:35.764Z,2.32
2018-11-21T02:00:39.028Z,2.36
2018-11-21T02:01:41.522Z,2.37
2018-11-21T02:02:45.750Z,2.33
2018-11-21T02:03:46.719Z,2.33
2018-11-21T02:04:49.292Z,2.30
2018-11-21T02:05:53.433Z,2.26
2018-11-21T02:06:58.265Z,2.26
2018-11-21T02:08:01.260Z,2.26
2018-11-21T02:09:17.310Z,2.22
2018-11-21T02:10:18.653Z,2.22
2018-11-21T02:11:21.364Z,2.21
2018-11-21T02:12:24.096Z,2.21
2018-11-21T02:13:28.656Z,2.20
2018-11-21T02:14:36.339Z,2.15
2018-11-21T02:15:38.917Z,2.17
2018-11-21T02:16:41.591Z,2.17
2018-11-21T02:17:44.329Z,2.17
2018-11-21T02:18:47.065Z,2.15
2018-11-21T02:19:50.214Z,2.14
2018-11-21T02:20:53.185Z,2.14
2018-11-21T02:21:56.326Z,2.13
2018-11-21T02:22:58.839Z,2.11
2018-11-21T02:24:01.463Z,2.09
2018-11-21T02:25:04.512Z,2.07
2018-11-21T02:26:07.520Z,2.04
2018-11-21T02:27:10.177Z,2.03
2018-11-21T02:28:15.469Z,2.02
2018-11-21T02:29:18.093Z,2.01
2018-11-21T02:30:20.576Z,1.97
2018-11-21T02:31:24.173Z,1.95
2018-11-21T02:32:27.383Z,1.94
2018-11-21T02:33:30.010Z,1.93
2018-11-21T02:34:32.510Z,1.95
2018-11-21T02:35:35.226Z,1.95
2018-11-21T02:36:37.953Z,1.93
2018-11-21T02:37:40.630Z,1.90
2018-11-21T02:38:45.222Z,1.89
2018-11-21T02:39:47.898Z,1.87
2018-11-21T02:40:50.588Z,1.86
2018-11-21T02:41:53.902Z,1.85
2018-11-21T02:42:56.585Z,1.83
2018-11-21T02:43:59.085Z,1.84
2018-11-21T02:45:02.061Z,1.82
2018-11-21T02:46:04.595Z,1.82
2018-11-21T02:47:07.227Z,1.82
2018-11-21T02:48:09.890Z,1.83
2018-11-21T02:49:12.397Z,1.81
2018-11-21T02:50:14.985Z,1.81
2018-11-21T02:51:17.809Z,1.80
2018-11-21T02:52:20.426Z,1.77
2018-11-21T02:53:23.052Z,1.77
2018-11-21T02:54:25.612Z,1.78
2018-11-21T02:55:28.108Z,1.78
2018-11-21T02:56:30.626Z,1.80
2018-11-21T02:57:34.688Z,1.82
2018-11-21T02:58:37.201Z,1.78
2018-11-21T02:59:40.147Z,1.75
2018-11-21T03:00:42.844Z,1.73
2018-11-21T03:01:45.819Z,1.73
2018-11-21T03:02:48.361Z,1.69
2018-11-21T03:03:51.273Z,1.70
2018-11-21T03:04:53.897Z,1.71
2018-11-21T03:05:56.404Z,1.74
2018-11-21T03:06:58.890Z,1.72
2018-11-21T03:08:02.442Z,1.68
2018-11-21T03:09:04.921Z,1.64
2018-11-21T03:10:07.902Z,1.62
2018-11-21T03:11:10.376Z,1.60
2018-11-21T03:12:12.887Z,1.57
2018-11-21T03:13:15.517Z,1.58
2018-11-21T03:14:18.036Z,1.55
2018-11-21T03:15:20.687Z,1.56
2018-11-21T03:16:23.530Z,1.57
2018-11-21T03:17:26.009Z,1.55
2018-11-21T03:18:28.582Z,1.55
2018-11-21T03:19:31.072Z,1.55
2018-11-21T03:20:33.985Z,1.52
2018-11-21T03:21:36.506Z,1.51
2018-11-21T03:22:39.852Z,1.50
2018-11-21T03:23:42.432Z,1.50
2018-11-21T03:24:44.930Z,1.54
2018-11-21T03:25:47.741Z,1.52
2018-11-21T03:26:50.651Z,1.48
2018-11-21T03:27:53.147Z,1.48
2018-11-21T03:28:56.222Z,1.46
2018-11-21T03:29:58.751Z,1.46
2018-11-21T03:31:01.297Z,1.47
2018-11-21T03:32:03.796Z,1.46
2018-11-21T03:33:06.276Z,1.46
2018-11-21T03:34:08.918Z,1.48
2018-11-21T03:35:11.897Z,1.51
2018-11-21T03:36:14.408Z,1.56
2018-11-21T03:37:16.930Z,1.52
2018-11-21T03:38:19.410Z,1.50
2018-11-21T03:39:23.111Z,1.49
2018-11-21T03:40:25.782Z,1.44
2018-11-21T03:41:30.293Z,1.38
2018-11-21T03:42:32.786Z,1.36
2018-11-21T03:43:35.332Z,1.36
2018-11-21T03:44:37.817Z,1.37
2018-11-21T03:45:40.393Z,1.40
2018-11-21T03:46:43.239Z,1.38
2018-11-21T03:47:46.279Z,1.36
2018-11-21T03:48:48.769Z,1.37
2018-11-21T03:49:54.664Z,1.30
2018-11-21T03:50:57.506Z,1.30
2018-11-21T03:52:00.073Z,1.28
2018-11-21T03:53:02.586Z,1.28
2018-11-21T03:54:05.622Z,1.27
2018-11-21T03:55:08.719Z,1.24
2018-11-21T03:56:11.281Z,1.24
2018-11-21T03:57:13.980Z,1.21
2018-11-21T03:58:16.610Z,1.21
2018-11-21T03:59:19.088Z,1.22
2018-11-21T04:00:22.300Z,1.19
2018-11-21T04:01:24.879Z,1.22
2018-11-21T04:02:27.690Z,1.21
2018-11-21T04:03:30.573Z,1.17
2018-11-21T04:04:33.051Z,1.16
2018-11-21T04:05:35.590Z,1.13
2018-11-21T04:06:46.303Z,1.12
2018-11-21T04:07:46.411Z,1.12
2018-11-21T04:09:01.427Z,1.13
2018-11-21T04:10:04.645Z,1.13
2018-11-21T04:11:07.121Z,1.15
2018-11-21T04:12:09.683Z,1.13
2018-11-21T04:13:12.588Z,1.10
2018-11-21T04:14:15.062Z,1.10
2018-11-21T04:15:17.573Z,1.10
2018-11-21T04:16:20.590Z,1.07
2018-11-21T04:17:23.174Z,1.08
2018-11-21T04:18:25.667Z,1.07
2018-11-21T04:19:28.938Z,1.03
2018-11-21T04:20:31.892Z,1.03
2018-11-21T04:21:35.415Z,1.02
2018-11-21T04:22:38.014Z,1.03
2018-11-21T04:23:40.905Z,1.04
2018-11-21T04:24:43.393Z,1.03
2018-11-21T04:25:46.220Z,1.05
2018-11-21T04:26:48.895Z,1.11
2018-11-21T04:27:51.713Z,1.14
2018-11-21T04:28:54.199Z,1.12
2018-11-21T04:29:56.681Z,1.08
2018-11-21T04:30:59.190Z,1.07
2018-11-21T04:32:02.403Z,1.08
2018-11-21T04:33:05.015Z,1.10
2018-11-21T04:34:07.650Z,1.07
2018-11-21T04:35:10.902Z,1.05
2018-11-21T04:36:13.858Z,1.04
2018-11-21T04:37:17.209Z,1.05
2018-11-21T04:38:21.686Z,1.03
2018-11-21T04:39:24.614Z,1.02
2018-11-21T04:40:27.194Z,1.01
2018-11-21T04:41:29.739Z,1.02
2018-11-21T04:42:34.248Z,1.03
2018-11-21T04:43:37.014Z,1.00
2018-11-21T04:44:40.117Z,0.97
2018-11-21T04:45:42.936Z,0.98
2018-11-21T04:46:45.457Z,0.98
2018-11-21T04:47:47.996Z,0.95
2018-11-21T04:48:50.480Z,0.96
2018-11-21T04:49:53.045Z,0.91
2018-11-21T04:50:56.464Z,0.91
2018-11-21T04:51:59.091Z,0.95
2018-11-21T04:53:01.609Z,0.95
2018-11-21T04:54:04.115Z,0.96
2018-11-21T04:55:06.696Z,0.94
2018-11-21T04:56:09.255Z,0.88
2018-11-21T04:57:12.072Z,0.92
2018-11-21T04:58:14.555Z,0.93
2018-11-21T04:59:17.103Z,0.90
2018-11-21T05:00:19.699Z,0.91
2018-11-21T05:01:22.402Z,0.93
2018-11-21T05:02:25.457Z,0.93
2018-11-21T05:03:28.515Z,0.92
2018-11-21T05:04:31.134Z,0.99
2018-11-21T05:05:33.661Z,1.01
2018-11-21T05:06:36.364Z,0.97
2018-11-21T05:07:38.973Z,0.97
2018-11-21T05:08:41.498Z,0.98
2018-11-21T05:09:44.570Z,0.93
2018-11-21T05:10:47.190Z,0.92
2018-11-21T05:11:49.954Z,0.90
2018-11-21T05:12:52.542Z,0.86
2018-11-21T05:13:55.422Z,0.84
2018-11-21T05:14:58.288Z,0.87
2018-11-21T05:16:01.443Z,0.86
2018-11-21T05:17:03.972Z,0.89
2018-11-21T05:18:08.613Z,0.89
2018-11-21T05:19:11.154Z,0.88
2018-11-21T05:20:13.633Z,0.91
2018-11-21T05:21:16.197Z,0.93
2018-11-21T05:22:19.041Z,0.92
2018-11-21T05:23:21.550Z,0.87
2018-11-21T05:24:26.686Z,0.85
2018-11-21T05:25:29.179Z,0.84
2018-11-21T05:26:31.742Z,0.84
2018-11-21T05:27:34.237Z,0.88
2018-11-21T05:28:37.163Z,0.89
2018-11-21T05:29:39.651Z,0.88
2018-11-21T05:30:42.160Z,0.82
2018-11-21T05:31:44.755Z,0.77
2018-11-21T05:32:47.261Z,0.78
2018-11-21T05:33:49.823Z,0.78
2018-11-21T05:34:52.360Z,0.78
2018-11-21T05:35:54.897Z,0.77
2018-11-21T05:36:57.453Z,0.83
2018-11-21T05:38:00.046Z,0.79
2018-11-21T05:39:02.541Z,0.73
2018-11-21T05:40:05.519Z,0.72
2018-11-21T05:41:08.010Z,0.71
2018-11-21T05:42:10.501Z,0.77
2018-11-21T05:43:13.385Z,0.80
2018-11-21T05:44:15.946Z,0.80
2018-11-21T05:45:18.716Z,0.79
2018-11-21T05:46:24.400Z,0.82
2018-11-21T05:47:26.900Z,0.78
2018-11-21T05:48:32.473Z,0.83
2018-11-21T05:49:35.531Z,0.84
2018-11-21T05:50:38.362Z,0.86
2018-11-21T05:51:40.876Z,0.86
2018-11-21T05:52:46.674Z,0.92
2018-11-21T05:53:49.149Z,0.88
2018-11-21T05:54:55.546Z,0.82
2018-11-21T05:55:58.042Z,0.78
2018-11-21T05:57:03.215Z,0.76
2018-11-21T05:58:05.758Z,0.77
2018-11-21T05:59:08.672Z,0.72
2018-11-21T06:00:11.960Z,0.72
2018-11-21T06:01:14.518Z,0.71
2018-11-21T06:02:17.245Z,0.67
2018-11-21T06:03:19.743Z,0.61
2018-11-21T06:04:22.595Z,0.66
2018-11-21T06:05:25.602Z,0.66
2018-11-21T06:06:28.163Z,0.64
2018-11-21T06:07:30.666Z,0.65
2018-11-21T06:08:33.662Z,0.66
2018-11-21T06:09:36.154Z,0.65
2018-11-21T06:10:38.698Z,0.62
2018-11-21T06:11:42.533Z,0.61
2018-11-21T06:12:45.176Z,0.60
2018-11-21T06:13:47.677Z,0.63
2018-11-21T06:14:51.420Z,0.63
2018-11-21T06:15:54.840Z,0.59
2018-11-21T06:16:57.794Z,0.63
2018-11-21T06:18:00.780Z,0.62
2018-11-21T06:19:05.403Z,0.59
2018-11-21T06:20:08.256Z,0.66
2018-11-21T06:21:11.169Z,0.75
2018-11-21T06:22:13.755Z,0.71
2018-11-21T06:23:16.252Z,0.66
2018-11-21T06:24:19.237Z,0.62
2018-11-21T06:25:21.785Z,0.64
2018-11-21T06:26:24.391Z,0.61
2018-11-21T06:27:26.966Z,0.58
2018-11-21T06:28:29.996Z,0.59
2018-11-21T06:29:33.874Z,0.60
2018-11-21T06:44:17.869Z,0.63
2018-11-21T06:45:20.460Z,0.63
2018-11-21T06:46:23.315Z,0.64
2018-11-21T06:47:26.308Z,0.64
2018-11-21T06:48:31.187Z,0.67
2018-11-21T06:49:34.131Z,0.72
2018-11-21T06:50:37.749Z,0.65
2018-11-21T06:51:56.147Z,0.64
2018-11-21T06:52:59.177Z,0.62
2018-11-21T06:54:01.841Z,0.63
2018-11-21T06:55:04.347Z,0.62
2018-11-21T06:56:10.979Z,0.64
2018-11-21T06:57:13.473Z,0.65
2018-11-21T06:58:15.952Z,0.66
2018-11-21T06:59:24.334Z,0.64
2018-11-21T07:00:26.963Z,0.66
2018-11-21T07:01:29.466Z,0.68
2018-11-21T07:02:34.723Z,0.71
2018-11-21T07:03:37.335Z,0.72
2018-11-21T07:04:39.999Z,0.68
2018-11-21T07:05:42.529Z,0.66
2018-11-21T07:06:45.103Z,0.67
2018-11-21T07:07:47.621Z,0.66
2018-11-21T07:08:50.481Z,0.68
2018-11-21T07:09:53.078Z,0.67
2018-11-21T07:10:56.692Z,0.68
2018-11-21T07:12:00.190Z,0.68
2018-11-21T07:13:03.153Z,0.67
2018-11-21T07:14:07.253Z,0.65
2018-11-21T07:15:09.027Z,0.67
2018-11-21T07:16:12.596Z,0.68
2018-11-21T07:17:15.154Z,0.69
2018-11-21T07:18:19.530Z,0.71
2018-11-21T07:19:31.892Z,0.71
2018-11-21T07:20:34.485Z,0.70
2018-11-21T07:21:38.458Z,0.67
2018-11-21T07:22:44.903Z,0.68
2018-11-21T07:23:47.446Z,0.67
2018-11-21T07:24:50.140Z,0.66
2018-11-21T07:25:54.273Z,0.65
2018-11-21T07:26:56.725Z,0.64
2018-11-21T07:28:02.058Z,0.64
2018-11-21T07:29:04.597Z,0.64
2018-11-21T07:30:09.669Z,0.65
2018-11-21T07:31:12.445Z,0.69
2018-11-21T07:32:21.108Z,0.74
2018-11-21T07:33:24.020Z,0.79
2018-11-21T07:34:26.545Z,0.82
2018-11-21T07:35:30.366Z,0.74
2018-11-21T07:36:32.442Z,0.76
2018-11-21T07:37:34.969Z,0.77
2018-11-21T07:38:37.491Z,0.81
2018-11-21T07:39:43.026Z,0.81
2018-11-21T07:40:45.960Z,0.83
2018-11-21T07:41:48.548Z,0.87
2018-11-21T07:42:51.453Z,0.95
2018-11-21T07:43:54.761Z,1.03
2018-11-21T07:44:57.626Z,1.04
2018-11-21T07:46:00.551Z,1.12
2018-11-21T07:47:03.718Z,1.13
2018-11-21T07:48:06.263Z,1.16
2018-11-21T07:49:09.941Z,1.13
2018-11-21T07:50:17.491Z,1.13
2018-11-21T07:51:20.929Z,1.19
2018-11-21T07:52:27.127Z,1.24
2018-11-21T07:53:30.108Z,1.24
2018-11-21T07:54:32.606Z,1.24
2018-11-21T07:55:35.219Z,1.26
2018-11-21T07:56:37.740Z,1.27
2018-11-21T07:57:47.903Z,1.23
2018-11-21T07:58:54.119Z,1.25
2018-11-21T07:59:56.592Z,1.13
2018-11-21T08:01:05.665Z,1.10
2018-11-21T08:02:18.484Z,1.11
2018-11-21T08:03:21.688Z,1.10
2018-11-21T08:04:29.445Z,1.07
2018-11-21T08:05:34.230Z,1.06
2018-11-21T08:06:55.704Z,1.01
2018-11-21T08:08:04.669Z,1.00
2018-11-21T08:09:29.157Z,1.00
2018-11-21T08:10:51.537Z,1.04
2018-11-21T08:12:22.092Z,1.04
2018-11-21T08:14:03.276Z,1.15
2018-11-21T08:15:23.092Z,1.24
2018-11-21T08:16:47.466Z,1.19
2018-11-21T08:18:14.674Z,1.18
2018-11-21T08:19:34.719Z,1.27
2018-11-21T08:21:01.902Z,1.27
2018-11-21T08:22:22.347Z,1.27
2018-11-21T08:23:56.120Z,1.19
2018-11-21T08:25:26.301Z,1.16
2018-11-21T08:26:46.465Z,1.28
2018-11-21T08:28:11.010Z,1.23
2018-11-21T08:29:13.942Z,1.20
2018-11-21T08:30:16.593Z,1.19
2018-11-21T08:31:19.113Z,1.15
2018-11-21T08:32:22.127Z,1.05
2018-11-21T08:33:24.730Z,1.02
2018-11-21T08:34:27.643Z,1.05
2018-11-21T08:35:39.000Z,1.13
2018-11-21T08:36:41.500Z,1.13
2018-11-21T08:37:45.407Z,1.04
2018-11-21T08:38:48.350Z,1.03
2018-11-21T08:39:51.290Z,1.04
2018-11-21T08:40:54.440Z,1.09
2018-11-21T08:41:56.930Z,1.17
2018-11-21T08:42:59.437Z,1.22
2018-11-21T08:44:02.010Z,1.22
2018-11-21T08:45:04.621Z,1.24
2018-11-21T08:46:07.222Z,1.31
2018-11-21T08:47:10.236Z,1.35
2018-11-21T08:48:13.553Z,1.45
2018-11-21T08:49:16.087Z,1.42
2018-11-21T08:50:18.681Z,1.39
2018-11-21T08:51:21.191Z,1.38
2018-11-21T08:52:23.717Z,1.46
2018-11-21T08:53:28.947Z,1.59
2018-11-21T08:54:31.652Z,1.56
2018-11-21T08:55:34.206Z,1.53
2018-11-21T08:56:36.710Z,1.46
2018-11-21T08:57:39.566Z,1.44
2018-11-21T08:58:42.524Z,1.46
2018-11-21T08:59:45.658Z,1.51
2018-11-21T09:00:48.972Z,1.50
2018-11-21T09:01:51.660Z,1.48
2018-11-21T09:02:54.440Z,1.49
2018-11-21T09:03:59.185Z,1.46
2018-11-21T09:05:01.828Z,1.49
2018-11-21T09:06:05.311Z,1.45
2018-11-21T09:07:07.792Z,1.45
2018-11-21T09:08:10.617Z,1.42
2018-11-21T09:09:13.833Z,1.45
2018-11-21T09:10:16.529Z,1.41
2018-11-21T09:11:20.184Z,1.39
2018-11-21T09:12:24.390Z,1.35
2018-11-21T09:13:29.262Z,1.42
2018-11-21T09:14:31.773Z,1.41
2018-11-21T09:15:34.310Z,1.40
2018-11-21T09:16:39.579Z,1.47
2018-11-21T09:17:42.515Z,1.51
2018-11-21T09:18:45.293Z,1.50
2018-11-21T09:19:48.308Z,1.53
2018-11-21T09:20:50.836Z,1.51
2018-11-21T09:21:53.463Z,1.52
2018-11-21T09:22:59.016Z,1.52
2018-11-21T09:24:02.069Z,1.46
2018-11-21T09:25:05.186Z,1.40
2018-11-21T09:26:07.749Z,1.39
2018-11-21T09:27:12.573Z,1.39
2018-11-21T09:28:14.753Z,1.44
2018-11-21T09:29:17.294Z,1.47
2018-11-21T09:30:21.256Z,1.54
2018-11-21T09:31:26.405Z,1.50
2018-11-21T09:32:29.318Z,1.47
2018-11-21T09:33:34.890Z,1.41
2018-11-21T09:34:38.337Z,1.31
2018-11-21T09:35:51.984Z,1.26
2018-11-21T09:36:53.974Z,1.23
2018-11-21T09:37:58.236Z,1.30
2018-11-21T09:39:02.450Z,1.29
2018-11-21T09:40:05.058Z,1.29
2018-11-21T09:41:07.568Z,1.34
2018-11-21T09:42:18.578Z,1.39
2018-11-21T09:43:21.179Z,1.39
2018-11-21T09:44:23.673Z,1.37
2018-11-21T09:45:26.561Z,1.46
2018-11-21T09:46:38.429Z,1.56
2018-11-21T09:47:51.069Z,1.44
2018-11-21T09:48:53.875Z,1.51
2018-11-21T09:49:56.777Z,1.51
2018-11-21T09:50:59.279Z,1.48
2018-11-21T09:52:01.803Z,1.46
2018-11-21T09:53:04.880Z,1.46
2018-11-21T09:54:07.811Z,1.51
2018-11-21T09:55:12.616Z,1.57
2018-11-21T09:56:15.152Z,1.54
2018-11-21T09:57:17.669Z,1.51
2018-11-21T09:58:21.291Z,1.53
2018-11-21T09:59:24.471Z,1.53
2018-11-21T10:00:29.752Z,1.44
2018-11-21T10:01:35.335Z,1.50
2018-11-21T10:02:38.187Z,1.53
2018-11-21T10:03:42.218Z,1.56
2018-11-21T10:04:44.828Z,1.54
2018-11-21T10:05:50.539Z,1.55
2018-11-21T10:06:58.710Z,1.51
2018-11-21T10:08:02.231Z,1.48
2018-11-21T10:09:10.487Z,1.56
2018-11-21T10:10:13.410Z,1.59
2018-11-21T10:11:16.347Z,1.47
2018-11-21T10:12:19.948Z,1.49
2018-11-21T10:13:22.726Z,1.55
2018-11-21T10:14:25.222Z,1.50
2018-11-21T10:15:27.803Z,1.51
2018-11-21T10:16:30.425Z,1.42
2018-11-21T10:17:32.972Z,1.48
2018-11-21T10:18:36.521Z,1.48
2018-11-21T10:19:39.318Z,1.49
2018-11-21T10:20:42.608Z,1.52
2018-11-21T10:21:45.171Z,1.56
2018-11-21T10:22:47.698Z,1.48
2018-11-21T10:23:50.183Z,1.40
2018-11-21T10:24:52.722Z,1.43
2018-11-21T10:25:55.843Z,1.48
2018-11-21T10:26:58.406Z,1.41
2018-11-21T10:28:01.392Z,1.25
2018-11-21T10:29:09.229Z,1.34
2018-11-21T10:30:11.763Z,1.40
2018-11-21T10:31:14.258Z,1.41
2018-11-21T10:32:17.166Z,1.40
2018-11-21T10:33:19.649Z,1.39
2018-11-21T10:34:24.275Z,1.38
2018-11-21T10:35:27.697Z,1.46
2018-11-21T10:36:30.182Z,1.48
2018-11-21T10:37:33.740Z,1.48
2018-11-21T10:38:38.209Z,1.42
2018-11-21T10:39:41.144Z,1.42
2018-11-21T10:40:43.712Z,1.41
2018-11-21T10:41:46.702Z,1.46
2018-11-21T10:42:52.029Z,1.51
2018-11-21T10:43:54.632Z,1.48
2018-11-21T10:44:59.295Z,1.47
2018-11-21T10:46:01.782Z,1.56
2018-11-21T10:47:04.269Z,1.59
2018-11-21T10:48:08.354Z,1.52
2018-11-21T10:49:10.840Z,1.50
2018-11-21T10:50:13.443Z,1.41
2018-11-21T10:51:16.272Z,1.34
2018-11-21T10:52:19.228Z,1.31
2018-11-21T10:53:21.742Z,1.41
2018-11-21T10:54:24.299Z,1.48
2018-11-21T10:55:33.986Z,1.43
2018-11-21T10:56:37.627Z,1.44
2018-11-21T10:57:41.764Z,1.48
2018-11-21T10:58:47.757Z,1.49
2018-11-21T10:59:50.300Z,1.49
2018-11-21T11:01:12.770Z,1.51
2018-11-21T11:02:46.362Z,1.55
2018-11-21T11:03:51.567Z,1.62
2018-11-21T11:05:11.626Z,1.74
2018-11-21T11:06:51.187Z,1.76
2018-11-21T11:08:29.027Z,1.83
2018-11-21T11:09:53.975Z,1.75
2018-11-21T11:11:13.703Z,1.77
2018-11-21T11:12:41.780Z,1.84
2018-11-21T11:14:01.597Z,1.71
2018-11-21T11:15:23.485Z,1.64
2018-11-21T11:16:44.956Z,1.50
2018-11-21T11:18:12.614Z,1.47
2018-11-21T11:19:43.002Z,1.39
2018-11-21T11:21:11.671Z,1.31
2018-11-21T11:22:35.044Z,1.36
2018-11-21T11:23:56.503Z,1.43
2018-11-21T11:25:33.151Z,1.47
2018-11-21T11:26:53.268Z,1.65
2018-11-21T11:28:14.771Z,1.75
2018-11-21T11:29:32.840Z,1.76
